createdAt,value
2018-07-23T00:01:26.164Z,17.80
2018-07-23T00:03:54.598Z,16.63
2018-07-23T00:06:23.100Z,17.00
2018-07-23T00:08:51.598Z,18.73
2018-07-23T00:11:20.139Z,17.63
2018-07-23T00:13:52.664Z,16.00
2018-07-23T00:16:21.142Z,15.00
2018-07-23T00:18:49.583Z,16.10
2018-07-23T00:21:18.022Z,17.97
2018-07-23T00:23:46.496Z,23.67
2018-07-23T00:26:15.024Z,15.03
2018-07-23T00:28:43.460Z,17.37
2018-07-23T00:31:11.879Z,18.07
2018-07-23T00:33:40.307Z,20.67
2018-07-23T00:36:08.790Z,22.33
2018-07-23T00:38:38.181Z,21.57
2018-07-23T00:41:06.681Z,19.73
2018-07-23T00:43:35.148Z,18.67
2018-07-23T00:46:03.694Z,19.60
2018-07-23T00:48:32.169Z,18.03
2018-07-23T00:51:00.653Z,16.67
2018-07-23T00:53:29.175Z,19.60
2018-07-23T00:55:57.708Z,20.43
2018-07-23T00:58:26.147Z,16.77
2018-07-23T01:00:54.635Z,21.07
2018-07-23T01:03:23.120Z,21.53
2018-07-23T01:05:51.530Z,23.27
2018-07-23T01:08:20.120Z,20.67
2018-07-23T01:10:48.667Z,18.40
2018-07-23T01:13:17.153Z,19.13
2018-07-23T01:15:45.666Z,24.03
2018-07-23T01:18:14.214Z,16.83
2018-07-23T01:20:42.724Z,18.63
2018-07-23T01:23:11.328Z,17.17
2018-07-23T01:25:39.864Z,20.67
2018-07-23T01:28:08.385Z,17.10
2018-07-23T01:30:36.834Z,23.23
2018-07-23T01:33:05.281Z,21.00
2018-07-23T01:35:34.388Z,17.07
2018-07-23T01:38:02.879Z,16.70
2018-07-23T01:40:31.360Z,19.43
2018-07-23T01:42:59.842Z,15.17
2018-07-23T01:45:28.294Z,17.47
2018-07-23T01:47:56.724Z,21.63
2018-07-23T01:50:25.217Z,17.90
2018-07-23T01:52:53.742Z,23.90
2018-07-23T01:55:22.169Z,23.60
2018-07-23T01:57:50.737Z,21.90
2018-07-23T02:00:19.281Z,16.53
2018-07-23T02:02:47.752Z,16.73
2018-07-23T02:05:16.203Z,21.57
2018-07-23T02:07:44.755Z,21.63
2018-07-23T02:10:13.220Z,18.97
2018-07-23T02:12:41.729Z,24.23
2018-07-23T02:15:10.201Z,21.40
2018-07-23T02:17:38.725Z,17.67
2018-07-23T02:20:07.269Z,21.13
2018-07-23T02:22:35.764Z,23.37
2018-07-23T02:25:04.338Z,22.20
2018-07-23T02:27:32.860Z,23.57
2018-07-23T02:30:01.508Z,21.33
2018-07-23T02:32:29.989Z,21.43
2018-07-23T02:34:58.461Z,20.83
2018-07-23T02:37:26.968Z,23.80
2018-07-23T02:39:55.434Z,26.80
2018-07-23T02:42:23.948Z,24.17
2018-07-23T02:44:52.510Z,22.73
2018-07-23T02:47:20.962Z,19.93
2018-07-23T02:49:49.415Z,21.90
2018-07-23T02:52:17.959Z,22.87
2018-07-23T02:54:46.427Z,21.93
2018-07-23T02:57:14.926Z,21.30
2018-07-23T02:59:43.404Z,21.93
2018-07-23T03:02:11.921Z,23.43
2018-07-23T03:04:40.490Z,23.30
2018-07-23T03:07:09.047Z,23.17
2018-07-23T03:09:37.526Z,24.57
2018-07-23T03:12:06.081Z,19.70
2018-07-23T03:14:36.037Z,22.63
2018-07-23T03:17:04.613Z,23.90
2018-07-23T03:19:33.030Z,22.37
2018-07-23T03:22:01.654Z,18.87
2018-07-23T03:24:38.456Z,21.30
2018-07-23T03:27:06.937Z,21.00
2018-07-23T03:29:35.418Z,18.80
2018-07-23T03:32:03.919Z,21.50
2018-07-23T03:34:32.358Z,22.33
2018-07-23T03:37:00.944Z,20.17
2018-07-23T03:39:29.471Z,25.27
2018-07-23T03:41:58.028Z,23.77
2018-07-23T03:44:26.526Z,23.90
2018-07-23T03:46:55.104Z,22.63
2018-07-23T03:49:23.600Z,23.30
2018-07-23T03:52:27.108Z,24.33
2018-07-23T03:54:55.558Z,23.63
2018-07-23T03:57:24.055Z,23.93
2018-07-23T03:59:52.629Z,23.57
2018-07-23T04:02:21.063Z,24.87
2018-07-23T04:04:49.501Z,29.00
2018-07-23T04:07:17.976Z,24.87
2018-07-23T04:09:46.446Z,24.87
2018-07-23T04:12:14.946Z,28.20
2018-07-23T04:14:43.484Z,23.40
2018-07-23T04:17:12.001Z,25.40
2018-07-23T04:19:40.477Z,27.57
2018-07-23T04:22:08.979Z,26.60
2018-07-23T04:24:37.458Z,28.10
2018-07-23T04:27:05.937Z,21.80
2018-07-23T04:29:34.360Z,27.10
2018-07-23T04:32:02.878Z,24.13
2018-07-23T04:34:31.293Z,24.40
2018-07-23T04:36:59.889Z,26.03
2018-07-23T04:39:28.425Z,24.37
2018-07-23T04:41:56.957Z,22.57
2018-07-23T04:44:25.499Z,24.67
2018-07-23T04:46:53.981Z,24.77
2018-07-23T04:49:22.517Z,26.23
2018-07-23T04:51:51.053Z,24.67
2018-07-23T04:54:19.646Z,29.10
2018-07-23T04:56:48.249Z,24.50
2018-07-23T04:59:16.646Z,23.20
2018-07-23T05:01:45.106Z,22.43
2018-07-23T05:04:13.574Z,25.13
2018-07-23T05:06:50.924Z,23.53
2018-07-23T05:09:19.439Z,21.37
2018-07-23T05:11:47.977Z,22.60
2018-07-23T05:14:16.553Z,21.57
2018-07-23T05:16:44.993Z,23.30
2018-07-23T05:19:13.575Z,22.57
2018-07-23T05:21:42.162Z,22.63
2018-07-23T05:24:10.626Z,24.30
2018-07-23T05:26:39.070Z,22.13
2018-07-23T05:29:07.584Z,24.67
2018-07-23T05:31:36.289Z,22.03
2018-07-23T05:34:04.869Z,23.67
2018-07-23T05:36:33.386Z,21.43
2018-07-23T05:39:01.926Z,24.50
2018-07-23T05:41:30.412Z,26.70
2018-07-23T05:43:58.944Z,26.00
2018-07-23T05:46:27.522Z,24.33
2018-07-23T05:48:55.957Z,26.70
2018-07-23T05:51:55.812Z,28.00
2018-07-23T05:54:24.361Z,26.60
2018-07-23T05:56:56.891Z,24.20
2018-07-23T05:59:25.520Z,25.07
2018-07-23T06:01:53.961Z,26.93
2018-07-23T06:04:22.489Z,25.93
2018-07-23T06:06:51.162Z,26.67
2018-07-23T06:09:19.590Z,26.77
2018-07-23T06:11:50.385Z,28.20
2018-07-23T06:14:18.890Z,25.90
2018-07-23T06:16:47.374Z,21.07
2018-07-23T06:19:15.993Z,25.00
2018-07-23T06:21:44.734Z,19.00
2018-07-23T06:24:13.319Z,25.57
2018-07-23T06:26:41.921Z,18.20
2018-07-23T06:29:10.489Z,25.27
2018-07-23T06:31:38.953Z,20.07
2018-07-23T06:34:07.479Z,26.50
2018-07-23T06:36:36.044Z,24.63
2018-07-23T06:39:06.790Z,19.30
2018-07-23T06:41:35.437Z,25.17
2018-07-23T06:44:03.974Z,18.27
2018-07-23T06:46:32.479Z,25.33
2018-07-23T06:49:01.106Z,26.13
2018-07-23T06:51:29.704Z,17.10
2018-07-23T06:53:58.294Z,19.30
2018-07-23T06:56:26.771Z,36.70
2018-07-23T06:58:55.788Z,22.40
2018-07-23T07:01:24.343Z,18.27
2018-07-23T07:03:52.918Z,22.00
2018-07-23T07:06:21.455Z,16.87
2018-07-23T07:08:50.977Z,19.03
2018-07-23T07:11:19.486Z,14.80
2018-07-23T07:13:51.037Z,50.20
2018-07-23T07:16:19.527Z,17.60
2018-07-23T07:18:48.124Z,17.27
2018-07-23T07:21:16.681Z,17.70
2018-07-23T07:23:45.170Z,14.93
2018-07-23T07:26:13.640Z,19.53
2018-07-23T07:32:42.741Z,15.60
2018-07-23T07:35:11.274Z,13.33
2018-07-23T07:38:11.558Z,16.43
2018-07-23T07:40:40.479Z,17.73
2018-07-23T07:43:09.150Z,16.47
2018-07-23T07:45:37.936Z,12.50
2018-07-23T07:48:06.453Z,13.00
2018-07-23T07:50:34.880Z,10.63
2018-07-23T07:53:03.392Z,15.00
2018-07-23T07:56:09.785Z,10.13
2018-07-23T07:58:38.389Z,17.57
2018-07-23T08:01:06.904Z,12.40
2018-07-23T08:03:35.449Z,12.27
2018-07-23T08:06:04.007Z,10.40
2018-07-23T08:08:47.673Z,12.90
2018-07-23T08:11:16.234Z,13.17
2018-07-23T08:13:44.738Z,13.40
2018-07-23T08:16:13.156Z,12.03
2018-07-23T08:18:41.656Z,18.00
2018-07-23T08:21:10.247Z,16.97
2018-07-23T08:23:38.821Z,12.87
2018-07-23T08:26:07.462Z,16.80
2018-07-23T08:28:36.000Z,13.50
2018-07-23T08:31:04.525Z,68.93
2018-07-23T08:33:33.072Z,13.97
2018-07-23T08:36:02.496Z,18.80
2018-07-23T08:38:31.075Z,14.53
2018-07-23T08:40:59.651Z,20.73
2018-07-23T08:43:28.127Z,15.70
2018-07-23T08:45:56.689Z,20.90
2018-07-23T08:48:25.140Z,24.43
2018-07-23T08:50:53.743Z,15.13
2018-07-23T08:53:22.358Z,18.90
2018-07-23T08:55:51.025Z,24.53
2018-07-23T08:58:19.529Z,18.20
2018-07-23T09:00:48.063Z,20.10
2018-07-23T09:03:17.112Z,21.20
2018-07-23T09:05:45.573Z,20.67
2018-07-23T09:08:14.076Z,23.70
2018-07-23T09:10:42.633Z,22.00
2018-07-23T09:13:11.129Z,20.33
2018-07-23T09:15:39.596Z,15.80
2018-07-23T09:18:08.108Z,23.23
2018-07-23T09:20:36.654Z,19.67
2018-07-23T09:23:05.716Z,23.87
2018-07-23T09:25:39.658Z,20.23
2018-07-23T09:28:08.131Z,27.43
2018-07-23T09:30:41.837Z,18.67
2018-07-23T09:33:10.336Z,19.37
2018-07-23T09:35:38.783Z,18.33
2018-07-23T09:38:07.245Z,24.80
2018-07-23T09:40:35.750Z,18.30
2018-07-23T09:43:04.515Z,23.50
2018-07-23T09:45:33.590Z,16.47
2018-07-23T09:48:02.035Z,24.27
2018-07-23T09:50:30.492Z,20.53
2018-07-23T09:52:58.925Z,17.27
2018-07-23T09:55:27.376Z,22.70
2018-07-23T09:57:55.883Z,14.50
2018-07-23T10:03:37.043Z,17.53
2018-07-23T10:06:05.646Z,17.47
2018-07-23T10:08:34.075Z,37.37
2018-07-23T10:11:02.900Z,16.73
2018-07-23T10:13:31.830Z,20.97
2018-07-23T10:16:00.286Z,15.80
2018-07-23T10:18:28.791Z,15.63
2018-07-23T10:20:57.233Z,21.63
2018-07-23T10:23:25.685Z,21.87
2018-07-23T10:25:54.281Z,25.90
2018-07-23T10:28:22.871Z,16.83
2018-07-23T10:30:51.388Z,16.63
2018-07-23T10:33:19.884Z,16.83
2018-07-23T10:35:48.550Z,20.47
2018-07-23T10:38:17.461Z,16.67
2018-07-23T10:40:46.041Z,17.07
2018-07-23T10:43:14.487Z,15.47
2018-07-23T10:45:43.033Z,14.73
2018-07-23T10:48:11.583Z,14.80
2018-07-23T10:50:40.214Z,18.20
2018-07-23T10:53:08.762Z,16.13
2018-07-23T10:55:37.238Z,15.67
2018-07-23T10:58:05.997Z,15.10
2018-07-23T11:00:34.505Z,15.40
2018-07-23T11:03:03.313Z,14.50
2018-07-23T11:05:31.757Z,12.60
2018-07-23T11:08:00.385Z,11.63
2018-07-23T11:10:28.941Z,15.70
2018-07-23T11:12:57.516Z,15.00
2018-07-23T11:15:26.110Z,15.47
2018-07-23T11:17:54.586Z,11.67
2018-07-23T11:20:23.030Z,13.70
2018-07-23T11:22:51.485Z,16.00
2018-07-23T11:25:38.978Z,14.27
2018-07-23T11:27:48.633Z,12.40
2018-07-23T11:30:17.205Z,16.57
2018-07-23T11:32:45.787Z,14.63
2018-07-23T11:35:14.360Z,14.80
2018-07-23T11:37:42.930Z,16.10
2018-07-23T11:40:11.403Z,10.27
2018-07-23T11:42:39.924Z,8.67
2018-07-23T11:45:08.505Z,9.70
2018-07-23T11:47:37.107Z,9.33
2018-07-23T11:50:05.693Z,9.73
2018-07-23T11:52:34.225Z,8.97
2018-07-23T11:55:02.746Z,14.40
2018-07-23T11:57:32.601Z,10.53
2018-07-23T12:00:01.214Z,9.00
2018-07-23T12:02:29.698Z,9.10
2018-07-23T12:04:58.258Z,9.40
2018-07-23T12:07:26.768Z,9.67
2018-07-23T12:09:55.705Z,11.10
2018-07-23T12:12:24.232Z,10.07
2018-07-23T12:14:52.693Z,11.03
2018-07-23T12:17:21.433Z,11.50
2018-07-23T12:19:50.658Z,10.90
2018-07-23T12:22:36.709Z,11.87
2018-07-23T12:25:05.321Z,9.07
2018-07-23T12:27:33.849Z,9.90
2018-07-23T12:30:02.324Z,10.37
2018-07-23T12:32:30.956Z,9.40
2018-07-23T12:34:59.489Z,8.10
2018-07-23T12:37:27.970Z,6.60
2018-07-23T12:39:56.863Z,8.67
2018-07-23T12:42:25.353Z,13.33
2018-07-23T12:44:53.827Z,6.80
2018-07-23T12:47:22.376Z,10.83
2018-07-23T12:49:50.950Z,6.17
2018-07-23T12:52:19.500Z,7.10
2018-07-23T12:54:48.062Z,13.00
2018-07-23T12:57:16.694Z,7.97
2018-07-23T12:59:45.184Z,7.37
2018-07-23T13:02:13.673Z,7.53
2018-07-23T13:04:42.156Z,9.57
2018-07-23T13:07:10.683Z,7.23
2018-07-23T13:09:39.256Z,5.40
2018-07-23T13:12:07.948Z,6.60
2018-07-23T13:14:36.523Z,9.20
2018-07-23T13:17:05.169Z,5.87
2018-07-23T13:19:33.705Z,7.13
2018-07-23T13:22:02.193Z,7.03
2018-07-23T13:24:30.672Z,5.07
2018-07-23T13:26:59.136Z,6.00
2018-07-23T13:29:27.737Z,6.03
2018-07-23T13:31:56.327Z,7.27
2018-07-23T13:34:24.775Z,5.27
2018-07-23T13:36:53.283Z,5.97
2018-07-23T13:39:21.948Z,5.40
2018-07-23T13:41:50.429Z,8.90
2018-07-23T13:44:19.007Z,8.93
2018-07-23T13:46:48.234Z,5.90
2018-07-23T13:49:16.814Z,6.63
2018-07-23T13:51:45.258Z,6.87
2018-07-23T13:54:13.801Z,5.57
2018-07-23T13:56:42.278Z,6.30
2018-07-23T13:59:10.736Z,11.13
2018-07-23T14:01:39.347Z,6.57
2018-07-23T14:04:07.874Z,6.43
2018-07-23T14:06:38.633Z,7.77
2018-07-23T14:09:09.442Z,6.47
2018-07-23T14:11:37.937Z,7.23
2018-07-23T14:14:06.498Z,6.67
2018-07-23T14:16:35.306Z,10.37
2018-07-23T14:19:03.801Z,7.60
2018-07-23T14:21:32.328Z,5.83
2018-07-23T14:24:00.777Z,7.63
2018-07-23T14:26:29.258Z,6.73
2018-07-23T14:28:57.997Z,5.97
2018-07-23T14:31:26.566Z,6.23
2018-07-23T14:33:55.208Z,9.10
2018-07-23T14:36:23.733Z,5.50
2018-07-23T14:38:52.197Z,10.20
2018-07-23T14:41:20.701Z,6.90
2018-07-23T14:43:49.182Z,6.20
2018-07-23T14:46:17.617Z,7.77
2018-07-23T14:48:46.169Z,8.37
2018-07-23T14:51:20.216Z,6.27
2018-07-23T14:53:48.755Z,6.87
2018-07-23T14:56:17.274Z,4.60
2018-07-23T14:58:45.706Z,6.13
2018-07-23T15:01:14.300Z,4.73
2018-07-23T15:03:43.085Z,4.93
2018-07-23T15:06:11.667Z,3.83
2018-07-23T15:08:40.137Z,7.50
2018-07-23T15:11:08.573Z,11.00
2018-07-23T15:13:37.170Z,5.47
2018-07-23T15:16:05.775Z,6.63
2018-07-23T15:18:34.484Z,6.17
2018-07-23T15:21:03.089Z,7.33
2018-07-23T15:23:32.008Z,10.03
2018-07-23T15:26:00.684Z,4.77
2018-07-23T15:28:29.271Z,5.33
2018-07-23T15:30:58.118Z,5.40
2018-07-23T15:33:26.587Z,14.43
2018-07-23T15:35:55.029Z,7.33
2018-07-23T15:38:23.573Z,6.80
2018-07-23T15:40:52.131Z,6.37
2018-07-23T15:43:20.612Z,6.77
2018-07-23T15:45:49.270Z,7.47
2018-07-23T15:48:17.651Z,9.50
2018-07-23T15:50:46.248Z,6.40
2018-07-23T15:53:14.775Z,10.07
2018-07-23T15:55:43.194Z,11.90
2018-07-23T15:58:11.700Z,8.53
2018-07-23T16:00:40.328Z,5.27
2018-07-23T16:03:08.860Z,5.90
2018-07-23T16:05:37.281Z,7.47
2018-07-23T16:08:05.897Z,5.10
2018-07-23T16:10:34.475Z,5.43
2018-07-23T16:13:03.001Z,4.30
2018-07-23T16:15:31.548Z,6.10
2018-07-23T16:18:00.155Z,6.50
2018-07-23T16:20:28.632Z,5.73
2018-07-23T16:23:18.007Z,7.10
2018-07-23T16:25:46.465Z,6.77
2018-07-23T16:28:15.064Z,7.30
2018-07-23T16:30:43.552Z,4.80
2018-07-23T16:33:11.986Z,5.63
2018-07-23T16:35:40.479Z,6.13
2018-07-23T16:38:09.427Z,6.47
2018-07-23T16:40:37.961Z,8.07
2018-07-23T16:43:06.708Z,4.50
2018-07-23T16:45:35.276Z,6.47
2018-07-23T16:48:20.842Z,4.60
2018-07-23T16:50:49.568Z,7.67
2018-07-23T16:53:18.104Z,5.17
2018-07-23T16:55:46.581Z,7.80
2018-07-23T16:58:15.080Z,6.63
2018-07-23T17:00:43.562Z,4.27
2018-07-23T17:03:12.031Z,9.10
2018-07-23T17:05:40.629Z,7.47
2018-07-23T17:08:09.191Z,11.30
2018-07-23T17:10:37.700Z,5.10
2018-07-23T17:13:06.153Z,5.47
2018-07-23T17:15:34.672Z,5.90
2018-07-23T17:18:03.175Z,6.50
2018-07-23T17:20:31.700Z,5.60
2018-07-23T17:23:00.167Z,5.30
2018-07-23T17:25:28.719Z,6.87
2018-07-23T17:27:57.181Z,4.93
2018-07-23T17:30:33.359Z,6.63
2018-07-23T17:33:02.175Z,5.13
2018-07-23T17:35:30.689Z,5.83
2018-07-23T17:37:59.205Z,5.87
2018-07-23T17:40:27.698Z,7.80
2018-07-23T17:42:56.116Z,7.00
2018-07-23T17:45:24.638Z,6.53
2018-07-23T17:47:53.286Z,5.97
2018-07-23T17:50:21.835Z,7.53
2018-07-23T17:52:50.355Z,3.77
2018-07-23T17:55:18.777Z,5.53
2018-07-23T17:57:47.348Z,7.13
2018-07-23T18:00:15.808Z,5.17
2018-07-23T18:02:44.227Z,4.77
2018-07-23T18:05:12.796Z,5.23
2018-07-23T18:07:41.388Z,4.47
2018-07-23T18:10:09.949Z,6.07
2018-07-23T18:12:38.411Z,5.53
2018-07-23T18:15:06.998Z,9.10
2018-07-23T18:17:35.445Z,5.73
2018-07-23T18:20:04.153Z,5.57
2018-07-23T18:22:32.600Z,5.73
2018-07-23T18:25:12.243Z,6.53
2018-07-23T18:27:40.814Z,4.40
2018-07-23T18:30:09.297Z,5.23
2018-07-23T18:32:37.861Z,9.23
2018-07-23T18:35:07.057Z,3.80
2018-07-23T18:37:35.646Z,3.90
2018-07-23T18:40:04.221Z,3.87
2018-07-23T18:42:47.414Z,3.77
2018-07-23T18:45:15.896Z,3.77
2018-07-23T18:47:44.416Z,5.80
2018-07-23T18:50:12.879Z,6.37
2018-07-23T18:52:41.467Z,7.70
2018-07-23T18:55:10.009Z,8.83
2018-07-23T18:57:38.538Z,10.27
2018-07-23T19:00:07.253Z,10.17
2018-07-23T19:02:35.779Z,9.53
2018-07-23T19:05:04.534Z,6.97
2018-07-23T19:07:32.984Z,6.70
2018-07-23T19:10:01.532Z,5.83
2018-07-23T19:12:30.023Z,10.03
2018-07-23T19:14:58.510Z,7.73
2018-07-23T19:17:27.087Z,13.83
2018-07-23T19:19:55.596Z,7.30
2018-07-23T19:22:24.143Z,6.43
2018-07-23T19:24:53.036Z,7.77
2018-07-23T19:27:21.542Z,4.80
2018-07-23T19:29:50.004Z,5.67
2018-07-23T19:32:18.561Z,11.87
2018-07-23T19:34:47.079Z,14.23
2018-07-23T19:37:15.552Z,8.03
2018-07-23T19:39:44.077Z,7.57
2018-07-23T19:42:12.694Z,6.43
2018-07-23T19:44:41.223Z,5.50
2018-07-23T19:47:09.726Z,7.93
2018-07-23T19:49:38.442Z,8.90
2018-07-23T19:52:07.407Z,6.73
2018-07-23T19:54:36.057Z,8.27
2018-07-23T19:57:04.717Z,5.93
2018-07-23T19:59:33.199Z,10.83
2018-07-23T20:02:01.745Z,9.03
2018-07-23T20:04:30.444Z,10.43
2018-07-23T20:06:59.038Z,7.27
2018-07-23T20:09:27.666Z,15.97
2018-07-23T20:11:56.268Z,17.97
2018-07-23T20:14:24.843Z,7.17
2018-07-23T20:16:53.410Z,20.00
2018-07-23T20:19:21.945Z,14.83
2018-07-23T20:21:50.442Z,8.93
2018-07-23T20:24:18.985Z,8.57
2018-07-23T20:26:47.576Z,11.23
2018-07-23T20:29:16.121Z,12.67
2018-07-23T20:31:44.609Z,16.80
2018-07-23T20:34:13.212Z,13.00
2018-07-23T20:36:41.703Z,14.57
2018-07-23T20:39:10.294Z,11.60
2018-07-23T20:41:38.885Z,13.97
2018-07-23T20:44:07.659Z,22.97
2018-07-23T20:46:36.220Z,16.07
2018-07-23T20:49:04.766Z,9.00
2018-07-23T20:51:33.374Z,8.00
2018-07-23T20:54:02.018Z,11.47
2018-07-23T20:56:30.567Z,9.67
2018-07-23T20:58:59.220Z,12.47
2018-07-23T21:01:27.745Z,10.00
2018-07-23T21:03:56.348Z,9.87
2018-07-23T21:06:24.972Z,18.53
2018-07-23T21:08:53.564Z,10.67
2018-07-23T21:11:22.100Z,10.87
2018-07-23T21:13:50.587Z,13.27
2018-07-23T21:16:19.120Z,12.17
2018-07-23T21:18:47.713Z,12.53
2018-07-23T21:21:16.326Z,10.67
2018-07-23T21:23:44.928Z,11.00
2018-07-23T21:26:13.411Z,13.87
2018-07-23T21:28:42.086Z,31.50
2018-07-23T21:31:10.561Z,19.80
2018-07-23T21:33:39.239Z,13.17
2018-07-23T21:36:07.901Z,13.57
2018-07-23T21:38:36.422Z,16.20
2018-07-23T21:41:04.953Z,18.17
2018-07-23T21:43:35.473Z,14.93
2018-07-23T21:46:04.524Z,17.23
2018-07-23T21:48:33.168Z,9.97
2018-07-23T21:51:01.755Z,8.43
2018-07-23T21:54:05.623Z,9.87
2018-07-23T21:56:34.201Z,9.47
2018-07-23T21:59:02.757Z,12.27
2018-07-23T22:01:31.287Z,10.80
2018-07-23T22:03:59.885Z,9.70
2018-07-23T22:06:28.484Z,11.70
2018-07-23T22:08:57.137Z,10.27
2018-07-23T22:11:25.680Z,10.57
2018-07-23T22:13:54.270Z,30.57
2018-07-23T22:16:22.777Z,10.60
2018-07-23T22:18:51.259Z,37.63
2018-07-23T22:21:19.792Z,21.17
2018-07-23T22:23:48.278Z,16.00
2018-07-23T22:26:16.896Z,15.63
2018-07-23T22:28:45.395Z,13.93
2018-07-23T22:31:14.043Z,12.50
2018-07-23T22:33:42.727Z,13.93
2018-07-23T22:36:11.227Z,8.73
2018-07-23T22:38:39.756Z,9.87
2018-07-23T22:41:08.317Z,11.53
2018-07-23T22:43:36.851Z,10.00
2018-07-23T22:46:05.414Z,10.97
2018-07-23T22:48:34.046Z,9.20
2018-07-23T22:51:02.599Z,7.70
2018-07-23T22:53:31.156Z,11.60
2018-07-23T22:55:59.656Z,16.80
2018-07-23T22:58:28.257Z,8.43
2018-07-23T23:00:56.718Z,12.33
2018-07-23T23:03:25.201Z,11.67
2018-07-23T23:05:53.678Z,13.57
2018-07-23T23:08:22.152Z,12.50
2018-07-23T23:10:50.631Z,11.20
2018-07-23T23:13:19.229Z,10.70
2018-07-23T23:15:47.703Z,12.83
2018-07-23T23:18:16.119Z,9.93
2018-07-23T23:20:44.664Z,9.63
2018-07-23T23:23:13.141Z,14.87
2018-07-23T23:25:41.748Z,13.00
2018-07-23T23:28:10.198Z,11.23
2018-07-23T23:30:38.809Z,11.40
2018-07-23T23:33:07.277Z,7.73
2018-07-23T23:35:35.742Z,8.93
2018-07-23T23:38:04.356Z,11.50
2018-07-23T23:40:32.923Z,8.63
2018-07-23T23:43:01.349Z,9.03
2018-07-23T23:45:29.900Z,10.90
2018-07-23T23:47:58.356Z,9.83
2018-07-23T23:50:26.783Z,10.67
2018-07-23T23:52:55.617Z,13.53
2018-07-23T23:55:24.121Z,11.37
2018-07-23T23:57:52.595Z,10.00
